sensor_id;sensor_type;location;lat;lon;timestamp;temperature;humidity
3037;DHT22;1528;52.550;13.408;2022-12-18T00:02:36;-1.50;29.40
3037;DHT22;1528;52.550;13.408;2022-12-18T00:05:22;-1.40;29.50
3037;DHT22;1528;52.550;13.408;2022-12-18T00:08:07;-1.80;29.50
3037;DHT22;1528;52.550;13.408;2022-12-18T00:10:54;-1.90;30.60
3037;DHT22;1528;52.550;13.408;2022-12-18T00:13:40;-1.80;30.00
3037;DHT22;1528;52.550;13.408;2022-12-18T00:16:27;-1.60;29.60
3037;DHT22;1528;52.550;13.408;2022-12-18T00:19:14;-1.60;29.60
3037;DHT22;1528;52.550;13.408;2022-12-18T00:22:00;-1.60;29.70
3037;DHT22;1528;52.550;13.408;2022-12-18T00:24:45;-1.60;29.30
3037;DHT22;1528;52.550;13.408;2022-12-18T00:27:32;-1.60;29.60
3037;DHT22;1528;52.550;13.408;2022-12-18T00:30:18;-1.60;29.50
3037;DHT22;1528;52.550;13.408;2022-12-18T00:33:03;-1.50;29.10
3037;DHT22;1528;52.550;13.408;2022-12-18T00:35:49;-1.40;29.50
3037;DHT22;1528;52.550;13.408;2022-12-18T00:38:35;-1.30;29.20
3037;DHT22;1528;52.550;13.408;2022-12-18T00:41:21;-1.60;29.70
3037;DHT22;1528;52.550;13.408;2022-12-18T00:44:22;-1.40;29.40
3037;DHT22;1528;52.550;13.408;2022-12-18T00:47:07;-1.50;28.80
3037;DHT22;1528;52.550;13.408;2022-12-18T00:49:53;-1.40;29.10
3037;DHT22;1528;52.550;13.408;2022-12-18T00:52:40;-1.40;29.20
3037;DHT22;1528;52.550;13.408;2022-12-18T00:55:25;-1.60;29.00
3037;DHT22;1528;52.550;13.408;2022-12-18T00:58:13;-1.60;30.00
3037;DHT22;1528;52.550;13.408;2022-12-18T01:01:00;-1.50;29.40
3037;DHT22;1528;52.550;13.408;2022-12-18T01:03:45;-1.80;29.60
3037;DHT22;1528;52.550;13.408;2022-12-18T01:06:31;-1.80;29.60
3037;DHT22;1528;52.550;13.408;2022-12-18T01:09:16;-1.70;29.20
3037;DHT22;1528;52.550;13.408;2022-12-18T01:12:02;-1.70;28.90
3037;DHT22;1528;52.550;13.408;2022-12-18T01:14:48;-1.70;28.80
3037;DHT22;1528;52.550;13.408;2022-12-18T01:17:35;-2.00;29.70
3037;DHT22;1528;52.550;13.408;2022-12-18T01:20:20;-1.90;29.80
3037;DHT22;1528;52.550;13.408;2022-12-18T01:23:06;-1.90;29.00
3037;DHT22;1528;52.550;13.408;2022-12-18T01:25:52;-1.80;29.50
3037;DHT22;1528;52.550;13.408;2022-12-18T01:28:39;-2.00;29.90
3037;DHT22;1528;52.550;13.408;2022-12-18T01:31:25;-1.80;30.20
3037;DHT22;1528;52.550;13.408;2022-12-18T01:34:13;-1.60;29.70
3037;DHT22;1528;52.550;13.408;2022-12-18T01:36:59;-1.50;29.00
3037;DHT22;1528;52.550;13.408;2022-12-18T01:39:47;-1.80;29.10
3037;DHT22;1528;52.550;13.408;2022-12-18T01:42:34;-1.60;29.30
3037;DHT22;1528;52.550;13.408;2022-12-18T01:45:26;-1.60;29.40
3037;DHT22;1528;52.550;13.408;2022-12-18T01:48:13;-1.60;29.20
3037;DHT22;1528;52.550;13.408;2022-12-18T01:51:00;-1.70;29.20
3037;DHT22;1528;52.550;13.408;2022-12-18T01:53:47;-2.00;29.40
3037;DHT22;1528;52.550;13.408;2022-12-18T01:56:33;-1.70;29.20
3037;DHT22;1528;52.550;13.408;2022-12-18T01:59:19;-1.70;28.80
3037;DHT22;1528;52.550;13.408;2022-12-18T02:02:04;-1.50;28.80
3037;DHT22;1528;52.550;13.408;2022-12-18T02:04:50;-1.40;28.40
3037;DHT22;1528;52.550;13.408;2022-12-18T02:07:45;-1.60;28.90
3037;DHT22;1528;52.550;13.408;2022-12-18T02:10:41;-1.50;28.20
3037;DHT22;1528;52.550;13.408;2022-12-18T02:13:34;-1.80;28.20
3037;DHT22;1528;52.550;13.408;2022-12-18T02:16:24;-1.90;28.50
3037;DHT22;1528;52.550;13.408;2022-12-18T02:19:26;-1.90;28.60
3037;DHT22;1528;52.550;13.408;2022-12-18T02:22:24;-1.90;28.80
3037;DHT22;1528;52.550;13.408;2022-12-18T02:25:24;-1.90;28.00
3037;DHT22;1528;52.550;13.408;2022-12-18T02:28:15;-2.00;28.50
3037;DHT22;1528;52.550;13.408;2022-12-18T02:31:04;-2.00;29.40
3037;DHT22;1528;52.550;13.408;2022-12-18T02:33:53;-2.00;28.90
3037;DHT22;1528;52.550;13.408;2022-12-18T02:36:41;-1.90;28.60
3037;DHT22;1528;52.550;13.408;2022-12-18T02:39:29;-1.80;28.00
3037;DHT22;1528;52.550;13.408;2022-12-18T02:42:16;-1.90;28.30
3037;DHT22;1528;52.550;13.408;2022-12-18T02:45:05;-1.90;28.40
3037;DHT22;1528;52.550;13.408;2022-12-18T02:47:51;-1.90;28.20
3037;DHT22;1528;52.550;13.408;2022-12-18T02:50:43;-1.90;28.20
3037;DHT22;1528;52.550;13.408;2022-12-18T02:53:33;-1.90;28.50
3037;DHT22;1528;52.550;13.408;2022-12-18T02:56:26;-1.90;28.20
3037;DHT22;1528;52.550;13.408;2022-12-18T02:59:15;-2.20;28.50
3037;DHT22;1528;52.550;13.408;2022-12-18T03:02:11;-2.10;28.50
3037;DHT22;1528;52.550;13.408;2022-12-18T03:05:07;-1.90;28.40
3037;DHT22;1528;52.550;13.408;2022-12-18T03:07:58;-2.00;27.90
3037;DHT22;1528;52.550;13.408;2022-12-18T03:10:49;-2.20;28.30
3037;DHT22;1528;52.550;13.408;2022-12-18T03:13:39;-2.20;28.70
3037;DHT22;1528;52.550;13.408;2022-12-18T03:16:27;-2.30;28.70
3037;DHT22;1528;52.550;13.408;2022-12-18T03:19:17;-2.10;28.30
3037;DHT22;1528;52.550;13.408;2022-12-18T03:22:06;-2.10;28.20
3037;DHT22;1528;52.550;13.408;2022-12-18T03:24:54;-2.20;28.40
3037;DHT22;1528;52.550;13.408;2022-12-18T03:27:43;-2.50;28.50
3037;DHT22;1528;52.550;13.408;2022-12-18T03:30:33;-2.50;28.90
3037;DHT22;1528;52.550;13.408;2022-12-18T03:33:26;-2.20;28.80
3037;DHT22;1528;52.550;13.408;2022-12-18T03:36:14;-2.10;28.60
3037;DHT22;1528;52.550;13.408;2022-12-18T03:39:00;-1.90;28.20
3037;DHT22;1528;52.550;13.408;2022-12-18T03:41:52;-1.90;28.20
3037;DHT22;1528;52.550;13.408;2022-12-18T03:44:43;-1.90;28.50
3037;DHT22;1528;52.550;13.408;2022-12-18T03:47:34;-2.00;28.20
3037;DHT22;1528;52.550;13.408;2022-12-18T03:50:29;-2.10;28.60
3037;DHT22;1528;52.550;13.408;2022-12-18T03:53:25;-1.80;28.30
3037;DHT22;1528;52.550;13.408;2022-12-18T03:56:15;-1.90;28.00
3037;DHT22;1528;52.550;13.408;2022-12-18T03:59:02;-1.90;28.10
3037;DHT22;1528;52.550;13.408;2022-12-18T04:01:50;-1.90;28.40
3037;DHT22;1528;52.550;13.408;2022-12-18T04:04:38;-1.80;28.00
3037;DHT22;1528;52.550;13.408;2022-12-18T04:07:25;-1.80;28.00
3037;DHT22;1528;52.550;13.408;2022-12-18T04:10:14;-1.90;27.30
3037;DHT22;1528;52.550;13.408;2022-12-18T04:13:00;-1.90;27.80
3037;DHT22;1528;52.550;13.408;2022-12-18T04:15:45;-1.90;27.80
3037;DHT22;1528;52.550;13.408;2022-12-18T04:18:31;-1.80;27.90
3037;DHT22;1528;52.550;13.408;2022-12-18T04:21:17;-1.70;27.40
3037;DHT22;1528;52.550;13.408;2022-12-18T04:24:02;-1.70;27.40
3037;DHT22;1528;52.550;13.408;2022-12-18T04:26:50;-1.70;27.10
3037;DHT22;1528;52.550;13.408;2022-12-18T04:29:36;-1.60;27.20
3037;DHT22;1528;52.550;13.408;2022-12-18T04:32:21;-1.90;27.10
3037;DHT22;1528;52.550;13.408;2022-12-18T04:35:07;-1.90;27.30
3037;DHT22;1528;52.550;13.408;2022-12-18T04:37:54;-1.90;27.60
3037;DHT22;1528;52.550;13.408;2022-12-18T04:40:40;-1.90;27.30
3037;DHT22;1528;52.550;13.408;2022-12-18T04:43:27;-1.80;27.00
3037;DHT22;1528;52.550;13.408;2022-12-18T04:46:12;-2.10;27.30
3037;DHT22;1528;52.550;13.408;2022-12-18T04:48:58;-2.00;27.40
3037;DHT22;1528;52.550;13.408;2022-12-18T04:51:44;-1.90;27.20
3037;DHT22;1528;52.550;13.408;2022-12-18T04:54:29;-1.90;27.20
3037;DHT22;1528;52.550;13.408;2022-12-18T04:57:15;-1.90;27.70
3037;DHT22;1528;52.550;13.408;2022-12-18T05:00:04;-2.00;27.70
3037;DHT22;1528;52.550;13.408;2022-12-18T05:02:50;-1.90;27.60
3037;DHT22;1528;52.550;13.408;2022-12-18T05:05:36;-1.90;27.30
3037;DHT22;1528;52.550;13.408;2022-12-18T05:08:21;-1.90;27.00
3037;DHT22;1528;52.550;13.408;2022-12-18T05:11:09;-2.00;27.80
3037;DHT22;1528;52.550;13.408;2022-12-18T05:13:54;-1.90;27.20
3037;DHT22;1528;52.550;13.408;2022-12-18T05:16:41;-2.10;27.50
3037;DHT22;1528;52.550;13.408;2022-12-18T05:19:27;-2.20;27.30
3037;DHT22;1528;52.550;13.408;2022-12-18T05:22:13;-2.10;27.40
3037;DHT22;1528;52.550;13.408;2022-12-18T05:24:58;-2.20;27.70
3037;DHT22;1528;52.550;13.408;2022-12-18T05:27:44;-2.30;27.30
3037;DHT22;1528;52.550;13.408;2022-12-18T05:30:30;-2.30;27.70
3037;DHT22;1528;52.550;13.408;2022-12-18T05:33:17;-2.40;27.40
3037;DHT22;1528;52.550;13.408;2022-12-18T05:36:05;-2.40;27.80
3037;DHT22;1528;52.550;13.408;2022-12-18T05:38:51;-2.20;27.70
3037;DHT22;1528;52.550;13.408;2022-12-18T05:41:36;-2.30;27.80
3037;DHT22;1528;52.550;13.408;2022-12-18T05:44:22;-2.20;27.70
3037;DHT22;1528;52.550;13.408;2022-12-18T05:47:07;-2.20;28.00
3037;DHT22;1528;52.550;13.408;2022-12-18T05:49:54;-2.20;27.20
3037;DHT22;1528;52.550;13.408;2022-12-18T05:52:40;-2.10;27.40
3037;DHT22;1528;52.550;13.408;2022-12-18T05:55:25;-1.90;27.50
3037;DHT22;1528;52.550;13.408;2022-12-18T05:58:12;-1.80;27.20
3037;DHT22;1528;52.550;13.408;2022-12-18T06:01:06;-1.80;27.10
3037;DHT22;1528;52.550;13.408;2022-12-18T06:03:55;-1.80;27.10
3037;DHT22;1528;52.550;13.408;2022-12-18T06:06:42;-1.80;27.10
3037;DHT22;1528;52.550;13.408;2022-12-18T06:09:29;-1.80;27.30
3037;DHT22;1528;52.550;13.408;2022-12-18T06:12:14;-1.90;27.30
3037;DHT22;1528;52.550;13.408;2022-12-18T06:15:03;-1.80;26.90
3037;DHT22;1528;52.550;13.408;2022-12-18T06:17:49;-1.80;27.10
3037;DHT22;1528;52.550;13.408;2022-12-18T06:20:34;-1.70;27.00
3037;DHT22;1528;52.550;13.408;2022-12-18T06:23:25;-2.10;27.60
3037;DHT22;1528;52.550;13.408;2022-12-18T06:26:12;-2.10;27.60
3037;DHT22;1528;52.550;13.408;2022-12-18T06:28:58;-2.00;27.80
3037;DHT22;1528;52.550;13.408;2022-12-18T06:31:43;-2.10;27.70
3037;DHT22;1528;52.550;13.408;2022-12-18T06:34:30;-2.20;28.20
3037;DHT22;1528;52.550;13.408;2022-12-18T06:37:16;-2.10;28.10
3037;DHT22;1528;52.550;13.408;2022-12-18T06:40:04;-2.00;27.90
3037;DHT22;1528;52.550;13.408;2022-12-18T06:42:50;-1.90;27.30
3037;DHT22;1528;52.550;13.408;2022-12-18T06:45:35;-2.20;27.30
3037;DHT22;1528;52.550;13.408;2022-12-18T06:48:21;-2.30;27.90
3037;DHT22;1528;52.550;13.408;2022-12-18T06:51:06;-2.10;27.90
3037;DHT22;1528;52.550;13.408;2022-12-18T06:53:52;-2.00;28.20
3037;DHT22;1528;52.550;13.408;2022-12-18T06:56:39;-1.80;27.90
3037;DHT22;1528;52.550;13.408;2022-12-18T06:59:24;-1.70;27.90
3037;DHT22;1528;52.550;13.408;2022-12-18T07:02:11;-1.90;27.90
3037;DHT22;1528;52.550;13.408;2022-12-18T07:04:57;-1.90;27.30
3037;DHT22;1528;52.550;13.408;2022-12-18T07:07:42;-1.90;27.60
3037;DHT22;1528;52.550;13.408;2022-12-18T07:10:28;-1.90;27.60
3037;DHT22;1528;52.550;13.408;2022-12-18T07:13:15;-1.90;27.90
3037;DHT22;1528;52.550;13.408;2022-12-18T07:16:06;-1.90;27.70
3037;DHT22;1528;52.550;13.408;2022-12-18T07:18:52;-1.70;27.80
3037;DHT22;1528;52.550;13.408;2022-12-18T07:21:37;-1.60;27.60
3037;DHT22;1528;52.550;13.408;2022-12-18T07:24:23;-1.50;27.80
3037;DHT22;1528;52.550;13.408;2022-12-18T07:27:09;-1.60;27.70
3037;DHT22;1528;52.550;13.408;2022-12-18T07:29:56;-1.50;27.70
3037;DHT22;1528;52.550;13.408;2022-12-18T07:32:41;-1.50;27.40
3037;DHT22;1528;52.550;13.408;2022-12-18T07:35:27;-1.50;27.50
3037;DHT22;1528;52.550;13.408;2022-12-18T07:38:12;-1.50;27.80
3037;DHT22;1528;52.550;13.408;2022-12-18T07:41:00;-1.50;27.00
3037;DHT22;1528;52.550;13.408;2022-12-18T07:43:46;-1.60;27.30
3037;DHT22;1528;52.550;13.408;2022-12-18T07:46:33;-1.70;27.60
3037;DHT22;1528;52.550;13.408;2022-12-18T07:49:19;-1.70;27.90
3037;DHT22;1528;52.550;13.408;2022-12-18T07:52:05;-1.70;27.30
3037;DHT22;1528;52.550;13.408;2022-12-18T07:54:50;-1.70;28.20
3037;DHT22;1528;52.550;13.408;2022-12-18T07:57:36;-1.60;27.60
3037;DHT22;1528;52.550;13.408;2022-12-18T08:00:21;-1.90;27.60
3037;DHT22;1528;52.550;13.408;2022-12-18T08:03:09;-1.70;28.10
3037;DHT22;1528;52.550;13.408;2022-12-18T08:06:05;-1.70;27.80
3037;DHT22;1528;52.550;13.408;2022-12-18T08:08:52;-1.60;27.10
3037;DHT22;1528;52.550;13.408;2022-12-18T08:11:37;-1.60;27.30
3037;DHT22;1528;52.550;13.408;2022-12-18T08:14:23;-1.50;27.50
3037;DHT22;1528;52.550;13.408;2022-12-18T08:17:08;-1.50;27.00
3037;DHT22;1528;52.550;13.408;2022-12-18T08:19:55;-1.30;26.70
3037;DHT22;1528;52.550;13.408;2022-12-18T08:22:41;-1.20;26.40
3037;DHT22;1528;52.550;13.408;2022-12-18T08:25:26;-1.30;26.30
3037;DHT22;1528;52.550;13.408;2022-12-18T08:28:12;-1.40;26.40
3037;DHT22;1528;52.550;13.408;2022-12-18T08:30:58;-1.50;26.30
3037;DHT22;1528;52.550;13.408;2022-12-18T08:33:43;-1.50;26.60
3037;DHT22;1528;52.550;13.408;2022-12-18T08:36:31;-1.30;26.90
3037;DHT22;1528;52.550;13.408;2022-12-18T08:39:16;-1.20;26.20
3037;DHT22;1528;52.550;13.408;2022-12-18T08:42:02;-1.20;26.20
3037;DHT22;1528;52.550;13.408;2022-12-18T08:45:06;-1.30;26.10
3037;DHT22;1528;52.550;13.408;2022-12-18T08:47:51;-1.30;26.10
3037;DHT22;1528;52.550;13.408;2022-12-18T08:50:37;-1.20;26.40
3037;DHT22;1528;52.550;13.408;2022-12-18T08:53:24;-1.30;26.60
3037;DHT22;1528;52.550;13.408;2022-12-18T08:56:10;-1.30;26.60
3037;DHT22;1528;52.550;13.408;2022-12-18T08:58:56;-1.20;26.10
3037;DHT22;1528;52.550;13.408;2022-12-18T09:01:42;-1.30;26.00
3037;DHT22;1528;52.550;13.408;2022-12-18T09:04:27;-1.00;26.10
3037;DHT22;1528;52.550;13.408;2022-12-18T09:07:13;-0.90;25.70
3037;DHT22;1528;52.550;13.408;2022-12-18T09:10:00;-0.90;25.50
3037;DHT22;1528;52.550;13.408;2022-12-18T09:12:45;-1.00;25.60
3037;DHT22;1528;52.550;13.408;2022-12-18T09:15:31;-0.90;25.60
3037;DHT22;1528;52.550;13.408;2022-12-18T09:18:19;-0.90;25.60
3037;DHT22;1528;52.550;13.408;2022-12-18T09:21:09;-0.80;25.40
3037;DHT22;1528;52.550;13.408;2022-12-18T09:23:55;-0.80;25.40
3037;DHT22;1528;52.550;13.408;2022-12-18T09:26:43;-0.70;25.10
3037;DHT22;1528;52.550;13.408;2022-12-18T09:29:28;-0.60;25.10
3037;DHT22;1528;52.550;13.408;2022-12-18T09:32:14;-0.60;25.40
3037;DHT22;1528;52.550;13.408;2022-12-18T09:34:59;-0.60;25.20
3037;DHT22;1528;52.550;13.408;2022-12-18T09:37:45;-0.50;25.30
3037;DHT22;1528;52.550;13.408;2022-12-18T09:40:35;-0.90;25.40
3037;DHT22;1528;52.550;13.408;2022-12-18T09:43:26;-0.80;25.60
3037;DHT22;1528;52.550;13.408;2022-12-18T09:46:18;-0.70;25.80
3037;DHT22;1528;52.550;13.408;2022-12-18T09:49:09;-0.60;25.60
3037;DHT22;1528;52.550;13.408;2022-12-18T09:52:00;-0.60;25.40
3037;DHT22;1528;52.550;13.408;2022-12-18T09:54:50;-0.60;25.80
3037;DHT22;1528;52.550;13.408;2022-12-18T09:57:40;-0.40;25.70
3037;DHT22;1528;52.550;13.408;2022-12-18T10:00:28;-0.30;25.40
3037;DHT22;1528;52.550;13.408;2022-12-18T10:03:15;-0.30;25.40
3037;DHT22;1528;52.550;13.408;2022-12-18T10:06:06;-0.10;25.90
3037;DHT22;1528;52.550;13.408;2022-12-18T10:08:57;-0.20;25.50
3037;DHT22;1528;52.550;13.408;2022-12-18T10:11:51;-0.10;25.90
3037;DHT22;1528;52.550;13.408;2022-12-18T10:14:43;0.00;25.80
3037;DHT22;1528;52.550;13.408;2022-12-18T10:17:37;0.10;26.10
3037;DHT22;1528;52.550;13.408;2022-12-18T10:20:32;0.10;26.00
3037;DHT22;1528;52.550;13.408;2022-12-18T10:23:25;0.00;26.40
3037;DHT22;1528;52.550;13.408;2022-12-18T10:26:12;0.10;26.30
3037;DHT22;1528;52.550;13.408;2022-12-18T10:28:59;0.20;26.50
3037;DHT22;1528;52.550;13.408;2022-12-18T10:31:45;0.10;26.00
3037;DHT22;1528;52.550;13.408;2022-12-18T10:34:32;0.20;26.30
3037;DHT22;1528;52.550;13.408;2022-12-18T10:37:19;0.20;26.00
3037;DHT22;1528;52.550;13.408;2022-12-18T10:40:10;0.30;26.00
3037;DHT22;1528;52.550;13.408;2022-12-18T10:43:11;0.30;25.80
3037;DHT22;1528;52.550;13.408;2022-12-18T10:46:04;0.40;25.70
3037;DHT22;1528;52.550;13.408;2022-12-18T10:48:53;0.50;25.20
3037;DHT22;1528;52.550;13.408;2022-12-18T10:51:40;0.60;25.60
3037;DHT22;1528;52.550;13.408;2022-12-18T10:54:27;0.70;25.50
3037;DHT22;1528;52.550;13.408;2022-12-18T10:57:15;0.80;25.40
3037;DHT22;1528;52.550;13.408;2022-12-18T11:00:21;0.80;25.50
3037;DHT22;1528;52.550;13.408;2022-12-18T11:03:30;0.80;25.40
3037;DHT22;1528;52.550;13.408;2022-12-18T11:06:18;0.60;26.00
3037;DHT22;1528;52.550;13.408;2022-12-18T11:09:19;0.70;26.30
3037;DHT22;1528;52.550;13.408;2022-12-18T11:12:15;0.70;26.00
3037;DHT22;1528;52.550;13.408;2022-12-18T11:15:02;0.80;26.50
3037;DHT22;1528;52.550;13.408;2022-12-18T11:17:49;0.90;26.10
3037;DHT22;1528;52.550;13.408;2022-12-18T11:20:35;0.80;25.80
3037;DHT22;1528;52.550;13.408;2022-12-18T11:23:22;0.80;26.50
3037;DHT22;1528;52.550;13.408;2022-12-18T11:26:10;0.70;26.00
3037;DHT22;1528;52.550;13.408;2022-12-18T11:29:09;0.70;26.30
3037;DHT22;1528;52.550;13.408;2022-12-18T11:35:18;0.80;26.00
3037;DHT22;1528;52.550;13.408;2022-12-18T11:38:12;0.80;25.90
3037;DHT22;1528;52.550;13.408;2022-12-18T11:41:02;0.70;26.80
3037;DHT22;1528;52.550;13.408;2022-12-18T11:43:54;0.60;25.80
3037;DHT22;1528;52.550;13.408;2022-12-18T11:46:47;0.50;26.50
3037;DHT22;1528;52.550;13.408;2022-12-18T11:49:35;0.50;26.40
3037;DHT22;1528;52.550;13.408;2022-12-18T11:52:24;0.50;26.60
3037;DHT22;1528;52.550;13.408;2022-12-18T11:55:14;0.70;26.20
3037;DHT22;1528;52.550;13.408;2022-12-18T11:58:04;0.70;26.30
3037;DHT22;1528;52.550;13.408;2022-12-18T12:00:56;0.80;26.20
3037;DHT22;1528;52.550;13.408;2022-12-18T12:03:59;0.80;25.90
3037;DHT22;1528;52.550;13.408;2022-12-18T12:06:55;0.50;26.80
3037;DHT22;1528;52.550;13.408;2022-12-18T12:09:52;0.60;26.90
3037;DHT22;1528;52.550;13.408;2022-12-18T12:12:53;0.50;26.70
3037;DHT22;1528;52.550;13.408;2022-12-18T12:15:47;0.40;27.20
3037;DHT22;1528;52.550;13.408;2022-12-18T12:18:54;0.20;27.30
3037;DHT22;1528;52.550;13.408;2022-12-18T12:21:43;0.20;27.50
3037;DHT22;1528;52.550;13.408;2022-12-18T12:24:41;0.20;27.10
3037;DHT22;1528;52.550;13.408;2022-12-18T12:27:36;0.30;27.10
3037;DHT22;1528;52.550;13.408;2022-12-18T12:30:30;0.20;26.80
3037;DHT22;1528;52.550;13.408;2022-12-18T12:33:29;0.20;27.40
3037;DHT22;1528;52.550;13.408;2022-12-18T12:36:22;0.30;27.20
3037;DHT22;1528;52.550;13.408;2022-12-18T12:39:16;0.20;27.10
3037;DHT22;1528;52.550;13.408;2022-12-18T12:42:09;0.10;27.50
3037;DHT22;1528;52.550;13.408;2022-12-18T12:45:18;0.10;27.00
3037;DHT22;1528;52.550;13.408;2022-12-18T12:48:10;-0.10;27.40
3037;DHT22;1528;52.550;13.408;2022-12-18T12:50:58;0.10;27.10
3037;DHT22;1528;52.550;13.408;2022-12-18T12:53:47;0.10;27.30
3037;DHT22;1528;52.550;13.408;2022-12-18T12:56:39;0.30;27.40
3037;DHT22;1528;52.550;13.408;2022-12-18T12:59:34;0.40;27.20
3037;DHT22;1528;52.550;13.408;2022-12-18T13:02:26;0.40;27.00
3037;DHT22;1528;52.550;13.408;2022-12-18T13:05:18;0.50;26.80
3037;DHT22;1528;52.550;13.408;2022-12-18T13:08:07;0.60;26.60
3037;DHT22;1528;52.550;13.408;2022-12-18T13:10:55;0.40;27.30
3037;DHT22;1528;52.550;13.408;2022-12-18T13:14:01;0.40;27.50
3037;DHT22;1528;52.550;13.408;2022-12-18T13:16:46;0.10;27.50
3037;DHT22;1528;52.550;13.408;2022-12-18T13:19:31;0.20;27.40
3037;DHT22;1528;52.550;13.408;2022-12-18T13:22:22;0.30;27.10
3037;DHT22;1528;52.550;13.408;2022-12-18T13:25:27;0.50;27.20
3037;DHT22;1528;52.550;13.408;2022-12-18T13:28:15;0.60;26.70
3037;DHT22;1528;52.550;13.408;2022-12-18T13:31:02;0.70;27.00
3037;DHT22;1528;52.550;13.408;2022-12-18T13:33:47;0.80;26.30
3037;DHT22;1528;52.550;13.408;2022-12-18T13:36:34;0.60;26.40
3037;DHT22;1528;52.550;13.408;2022-12-18T13:39:24;0.70;26.80
3037;DHT22;1528;52.550;13.408;2022-12-18T13:42:38;0.90;26.80
3037;DHT22;1528;52.550;13.408;2022-12-18T13:45:45;0.80;26.50
3037;DHT22;1528;52.550;13.408;2022-12-18T13:48:33;0.80;26.80
3037;DHT22;1528;52.550;13.408;2022-12-18T13:51:19;0.70;26.60
3037;DHT22;1528;52.550;13.408;2022-12-18T13:54:17;0.60;26.50
3037;DHT22;1528;52.550;13.408;2022-12-18T13:57:05;0.70;26.70
3037;DHT22;1528;52.550;13.408;2022-12-18T13:59:51;0.60;26.60
3037;DHT22;1528;52.550;13.408;2022-12-18T14:02:38;0.80;26.50
3037;DHT22;1528;52.550;13.408;2022-12-18T14:05:25;0.60;26.50
3037;DHT22;1528;52.550;13.408;2022-12-18T14:08:13;0.60;27.00
3037;DHT22;1528;52.550;13.408;2022-12-18T14:11:00;0.50;27.00
3037;DHT22;1528;52.550;13.408;2022-12-18T14:13:46;0.50;26.90
3037;DHT22;1528;52.550;13.408;2022-12-18T14:16:32;0.50;27.30
3037;DHT22;1528;52.550;13.408;2022-12-18T14:19:24;0.50;27.40
3037;DHT22;1528;52.550;13.408;2022-12-18T14:22:18;0.70;27.60
3037;DHT22;1528;52.550;13.408;2022-12-18T14:25:15;0.70;26.90
3037;DHT22;1528;52.550;13.408;2022-12-18T14:28:08;0.70;27.00
3037;DHT22;1528;52.550;13.408;2022-12-18T14:30:57;0.50;27.10
3037;DHT22;1528;52.550;13.408;2022-12-18T14:33:42;0.60;27.30
3037;DHT22;1528;52.550;13.408;2022-12-18T14:36:29;0.40;27.00
3037;DHT22;1528;52.550;13.408;2022-12-18T14:39:17;0.50;27.30
3037;DHT22;1528;52.550;13.408;2022-12-18T14:42:03;0.50;27.50
3037;DHT22;1528;52.550;13.408;2022-12-18T14:44:49;0.60;27.30
3037;DHT22;1528;52.550;13.408;2022-12-18T14:47:34;0.50;27.40
3037;DHT22;1528;52.550;13.408;2022-12-18T14:50:20;0.40;27.90
3037;DHT22;1528;52.550;13.408;2022-12-18T14:53:19;0.30;27.30
3037;DHT22;1528;52.550;13.408;2022-12-18T14:56:15;0.30;27.40
3037;DHT22;1528;52.550;13.408;2022-12-18T14:59:03;0.40;26.90
3037;DHT22;1528;52.550;13.408;2022-12-18T15:01:56;0.40;27.10
3037;DHT22;1528;52.550;13.408;2022-12-18T15:04:43;0.50;26.70
3037;DHT22;1528;52.550;13.408;2022-12-18T15:07:40;0.20;26.70
3037;DHT22;1528;52.550;13.408;2022-12-18T15:10:29;0.30;27.00
3037;DHT22;1528;52.550;13.408;2022-12-18T15:13:21;0.20;27.20
3037;DHT22;1528;52.550;13.408;2022-12-18T15:16:11;0.30;27.10
3037;DHT22;1528;52.550;13.408;2022-12-18T15:18:57;0.30;27.00
3037;DHT22;1528;52.550;13.408;2022-12-18T15:21:43;0.20;27.00
3037;DHT22;1528;52.550;13.408;2022-12-18T15:24:31;0.20;27.00
3037;DHT22;1528;52.550;13.408;2022-12-18T15:27:27;0.10;27.40
3037;DHT22;1528;52.550;13.408;2022-12-18T15:30:31;0.10;26.90
3037;DHT22;1528;52.550;13.408;2022-12-18T15:33:23;0.10;27.40
3037;DHT22;1528;52.550;13.408;2022-12-18T15:36:12;0.20;27.40
3037;DHT22;1528;52.550;13.408;2022-12-18T15:38:58;0.10;27.60
3037;DHT22;1528;52.550;13.408;2022-12-18T15:41:47;0.10;27.40
3037;DHT22;1528;52.550;13.408;2022-12-18T15:44:51;0.00;27.50
3037;DHT22;1528;52.550;13.408;2022-12-18T15:47:37;0.10;27.70
3037;DHT22;1528;52.550;13.408;2022-12-18T15:50:25;0.20;27.90
3037;DHT22;1528;52.550;13.408;2022-12-18T15:53:11;0.30;28.60
3037;DHT22;1528;52.550;13.408;2022-12-18T15:55:57;0.10;28.30
3037;DHT22;1528;52.550;13.408;2022-12-18T15:59:01;0.10;27.70
3037;DHT22;1528;52.550;13.408;2022-12-18T16:01:50;0.20;27.30
3037;DHT22;1528;52.550;13.408;2022-12-18T16:04:36;0.20;27.00
3037;DHT22;1528;52.550;13.408;2022-12-18T16:07:22;0.10;26.90
3037;DHT22;1528;52.550;13.408;2022-12-18T16:10:08;0.10;27.10
3037;DHT22;1528;52.550;13.408;2022-12-18T16:12:54;0.10;26.90
3037;DHT22;1528;52.550;13.408;2022-12-18T16:15:39;0.10;27.00
3037;DHT22;1528;52.550;13.408;2022-12-18T16:18:26;0.00;27.00
3037;DHT22;1528;52.550;13.408;2022-12-18T16:21:12;0.10;26.80
3037;DHT22;1528;52.550;13.408;2022-12-18T16:23:58;0.20;26.60
3037;DHT22;1528;52.550;13.408;2022-12-18T16:26:44;0.20;26.80
3037;DHT22;1528;52.550;13.408;2022-12-18T16:29:29;0.10;26.40
3037;DHT22;1528;52.550;13.408;2022-12-18T16:32:17;-0.10;26.60
3037;DHT22;1528;52.550;13.408;2022-12-18T16:35:05;0.10;26.80
3037;DHT22;1528;52.550;13.408;2022-12-18T16:37:50;0.10;26.60
3037;DHT22;1528;52.550;13.408;2022-12-18T16:40:37;0.10;26.70
3037;DHT22;1528;52.550;13.408;2022-12-18T16:43:43;0.20;26.70
3037;DHT22;1528;52.550;13.408;2022-12-18T16:46:29;0.40;26.60
3037;DHT22;1528;52.550;13.408;2022-12-18T16:49:16;0.20;26.60
3037;DHT22;1528;52.550;13.408;2022-12-18T16:52:03;0.20;27.10
3037;DHT22;1528;52.550;13.408;2022-12-18T16:54:49;0.20;26.50
3037;DHT22;1528;52.550;13.408;2022-12-18T16:57:35;0.10;26.40
3037;DHT22;1528;52.550;13.408;2022-12-18T17:00:21;0.10;26.50
3037;DHT22;1528;52.550;13.408;2022-12-18T17:03:06;0.00;27.30
3037;DHT22;1528;52.550;13.408;2022-12-18T17:05:52;-0.10;26.90
3037;DHT22;1528;52.550;13.408;2022-12-18T17:08:39;-0.10;27.00
3037;DHT22;1528;52.550;13.408;2022-12-18T17:11:25;-0.30;27.50
3037;DHT22;1528;52.550;13.408;2022-12-18T17:14:13;-0.30;27.30
3037;DHT22;1528;52.550;13.408;2022-12-18T17:16:59;-0.30;27.30
3037;DHT22;1528;52.550;13.408;2022-12-18T17:19:45;-0.30;27.20
3037;DHT22;1528;52.550;13.408;2022-12-18T17:22:31;-0.40;27.30
3037;DHT22;1528;52.550;13.408;2022-12-18T17:25:17;-0.30;27.50
3037;DHT22;1528;52.550;13.408;2022-12-18T17:28:03;-0.30;27.20
3037;DHT22;1528;52.550;13.408;2022-12-18T17:30:49;-0.30;27.40
3037;DHT22;1528;52.550;13.408;2022-12-18T17:33:35;-0.20;27.10
3037;DHT22;1528;52.550;13.408;2022-12-18T17:36:21;-0.30;27.30
3037;DHT22;1528;52.550;13.408;2022-12-18T17:39:07;-0.40;27.40
3037;DHT22;1528;52.550;13.408;2022-12-18T17:41:54;-0.30;27.20
3037;DHT22;1528;52.550;13.408;2022-12-18T17:44:40;-0.40;26.70
3037;DHT22;1528;52.550;13.408;2022-12-18T17:47:26;-0.60;27.60
3037;DHT22;1528;52.550;13.408;2022-12-18T17:50:15;-0.40;27.50
3037;DHT22;1528;52.550;13.408;2022-12-18T17:53:02;-0.40;27.40
3037;DHT22;1528;52.550;13.408;2022-12-18T17:55:53;-0.50;27.20
3037;DHT22;1528;52.550;13.408;2022-12-18T17:58:43;-0.50;27.60
3037;DHT22;1528;52.550;13.408;2022-12-18T18:01:28;-0.40;27.50
3037;DHT22;1528;52.550;13.408;2022-12-18T18:04:14;-0.50;27.50
3037;DHT22;1528;52.550;13.408;2022-12-18T18:07:00;-0.50;27.10
3037;DHT22;1528;52.550;13.408;2022-12-18T18:09:47;-0.90;27.50
3037;DHT22;1528;52.550;13.408;2022-12-18T18:12:33;-0.90;27.60
3037;DHT22;1528;52.550;13.408;2022-12-18T18:15:37;-0.70;27.80